Time;durP1;ratioP1;P1;durP2;ratioP2;P2;SDS_P1;SDS_P2;PMS_P1;PMS_P2;Temp;Humidity;BMP_temperature;BMP_pressure;BME280_temperature;BME280_humidity;BME280_pressure;Samples;Min_cycle;Max_cycle;Signal;HPM_P1;HPM_P2
2022/03/15 00:01:59;;;;;;;99.13;34.58;;;;;;;0.07;58.22;96886.50;4990667;28;20053;-82
2022/03/15 00:04:25;;;;;;;88.78;35.03;;;;;;;-0.23;58.55;96853.31;5007626;28;20025;-82
2022/03/15 00:06:50;;;;;;;80.72;34.88;;;;;;;0.04;58.83;96925.13;5023357;28;20037;-82
2022/03/15 00:09:15;;;;;;;89.47;34.88;;;;;;;-0.11;58.23;96867.59;4989291;28;20026;-82
2022/03/15 00:11:41;;;;;;;87.68;34.63;;;;;;;0.13;58.94;96918.94;4988911;28;20518;-82
2022/03/15 00:14:08;;;;;;;88.72;35.72;;;;;;;0.31;58.14;96927.34;4971169;28;20030;-82
2022/03/15 00:16:34;;;;;;;91.18;34.38;;;;;;;0.16;58.54;96923.78;4971155;28;20109;-81
2022/03/15 00:19:01;;;;;;;91.63;35.40;;;;;;;0.15;59.00;96949.09;4984082;28;20037;-82
2022/03/15 00:21:28;;;;;;;82.70;36.22;;;;;;;-0.05;59.67;96924.31;5000129;28;20053;-82
2022/03/15 00:23:53;;;;;;;92.40;36.35;;;;;;;-0.85;59.73;96799.09;5017016;28;20036;-81
2022/03/15 00:26:19;;;;;;;94.43;35.10;;;;;;;-0.54;58.96;96809.69;5008975;28;20429;-82
2022/03/15 00:28:45;;;;;;;82.45;35.83;;;;;;;0.02;59.63;96950.56;4971204;28;20093;-81
2022/03/15 00:31:10;;;;;;;88.43;35.05;;;;;;;-0.50;59.61;96883.94;4971613;28;20552;-81
2022/03/15 00:33:37;;;;;;;87.20;34.97;;;;;;;-0.21;60.04;96958.22;4971515;28;20088;-83
2022/03/15 00:36:03;;;;;;;94.97;34.42;;;;;;;-0.58;60.43;96904.78;4971458;28;20034;-82
2022/03/15 00:38:28;;;;;;;78.43;33.42;;;;;;;-0.25;60.46;96942.09;4990720;28;20177;-82
2022/03/15 00:40:54;;;;;;;80.72;32.00;;;;;;;-0.26;60.39;96968.34;4978913;28;20037;-82
2022/03/15 00:43:20;;;;;;;79.47;34.08;;;;;;;-0.99;60.20;96824.97;4990504;28;20591;-83
2022/03/15 00:45:45;;;;;;;80.07;33.92;;;;;;;-0.80;60.57;96874.16;4993940;28;20027;-82
2022/03/15 00:48:11;;;;;;;84.88;34.30;;;;;;;-0.35;60.50;96951.06;4999999;28;20482;-82
2022/03/15 00:50:41;;;;;;;89.65;35.25;;;;;;;-0.27;60.41;96940.63;5008095;28;20033;-82
2022/03/15 00:53:07;;;;;;;83.68;33.78;;;;;;;-0.69;61.54;96936.38;5022695;28;20026;-82
2022/03/15 00:55:33;;;;;;;75.10;31.23;;;;;;;-0.55;61.05;96934.91;4978302;28;20034;-82
2022/03/15 00:57:58;;;;;;;85.10;34.25;;;;;;;-0.80;61.61;96905.41;4970883;28;20427;-82
2022/03/15 01:00:27;;;;;;;81.55;34.45;;;;;;;-0.63;61.16;96914.88;5004764;28;20062;-83
2022/03/15 01:02:53;;;;;;;82.15;34.42;;;;;;;-0.35;60.89;96928.41;4989150;28;20049;-82
2022/03/15 01:05:18;;;;;;;88.30;33.53;;;;;;;-0.87;61.13;96860.13;4973611;28;20443;-83
2022/03/15 01:07:44;;;;;;;84.22;33.80;;;;;;;-1.34;60.78;96747.97;4990561;28;20112;-83
2022/03/15 01:10:09;;;;;;;83.72;33.15;;;;;;;-2.04;61.19;96675.50;4990863;28;20026;-82
2022/03/15 01:12:35;;;;;;;80.85;36.00;;;;;;;-1.40;61.11;96753.81;4990881;28;20053;-82
2022/03/15 01:15:00;;;;;;;83.45;36.13;;;;;;;-0.23;60.95;96910.66;5015604;28;20034;-82
2022/03/15 01:17:26;;;;;;;84.82;34.30;;;;;;;-1.07;60.80;96791.94;5012513;28;20057;-82
2022/03/15 01:19:51;;;;;;;84.00;35.25;;;;;;;-1.11;61.09;96814.03;5001682;28;20038;-82
2022/03/15 01:22:17;;;;;;;85.80;34.17;;;;;;;-0.12;60.52;96923.34;5011961;28;20033;-82
2022/03/15 01:24:43;;;;;;;92.80;35.13;;;;;;;-1.15;60.73;96762.47;5011923;28;20054;-82
2022/03/15 01:27:08;;;;;;;93.18;34.05;;;;;;;-0.81;61.04;96817.81;5010112;28;20052;-82
2022/03/15 01:29:34;;;;;;;85.65;33.58;;;;;;;-0.68;60.75;96853.78;4993885;28;20069;-83
2022/03/15 01:31:59;;;;;;;89.00;34.85;;;;;;;-1.04;60.78;96786.38;5026904;28;20534;-82
2022/03/15 01:34:27;;;;;;;83.57;33.60;;;;;;;-0.80;60.67;96809.84;4996663;28;20030;-82
2022/03/15 01:36:52;;;;;;;83.15;34.45;;;;;;;-0.59;60.02;96837.19;5011440;28;20030;-82
2022/03/15 01:39:18;;;;;;;93.10;35.35;;;;;;;-0.11;60.68;96925.78;4993594;28;20037;-83
2022/03/15 01:41:45;;;;;;;85.97;31.77;;;;;;;0.00;60.53;96922.84;4995755;28;20092;-82
2022/03/15 01:44:19;;;;;;;74.57;33.17;;;;;;;-0.10;61.10;96918.78;5025858;28;20083;-82
2022/03/15 01:46:46;;;;;;;83.28;35.47;;;;;;;-0.89;60.65;96783.94;4974115;28;20571;-82
2022/03/15 01:49:12;;;;;;;85.13;34.88;;;;;;;-0.33;60.32;96889.16;4974364;28;20030;-82
2022/03/15 01:51:40;;;;;;;85.38;34.83;;;;;;;-0.14;60.07;96907.84;4981735;28;20092;-82
2022/03/15 01:54:10;;;;;;;79.35;33.10;;;;;;;-0.37;60.21;96896.47;4993846;28;20480;-82
2022/03/15 01:56:41;;;;;;;85.40;33.92;;;;;;;0.07;60.14;96943.06;5009778;28;20116;-82
2022/03/15 01:59:13;;;;;;;79.78;33.80;;;;;;;-0.56;60.27;96861.13;5000000;28;20034;-82
2022/03/15 02:01:42;;;;;;;96.07;39.35;;;;;;;-3.32;59.83;96417.88;4993510;28;20038;-82
2022/03/15 02:04:09;;;;;;;85.03;35.15;;;;;;;0.03;60.00;96954.78;4993608;28;20062;-82
2022/03/15 02:06:36;;;;;;;96.65;39.05;;;;;;;-0.79;60.04;96842.72;5011139;28;20034;-83
2022/03/15 02:09:12;;;;;;;104.65;40.00;;;;;;;-0.02;59.83;96932.66;5011667;28;20099;-81
2022/03/15 02:11:39;;;;;;;103.95;42.17;;;;;;;-1.52;60.00;96696.06;4991496;28;20030;-81
2022/03/15 02:14:05;;;;;;;90.68;37.95;;;;;;;-0.05;60.31;96934.75;5013616;28;20478;-82
2022/03/15 02:16:31;;;;;;;94.25;38.45;;;;;;;-1.07;60.97;96841.41;5011679;28;20030;-82
2022/03/15 02:18:59;;;;;;;86.93;38.10;;;;;;;-1.02;61.02;96830.50;4993035;28;20563;-82
2022/03/15 02:21:26;;;;;;;101.53;41.03;;;;;;;-0.62;60.83;96879.22;5010810;28;20572;-80
2022/03/15 02:23:52;;;;;;;86.60;37.55;;;;;;;-0.44;60.71;96900.69;4996536;28;20076;-82
2022/03/15 02:26:17;;;;;;;103.65;36.72;;;;;;;-0.32;61.10;96920.28;5009669;28;20065;-82
2022/03/15 02:28:43;;;;;;;93.22;37.80;;;;;;;-1.31;61.23;96771.91;4992254;28;20026;-82
2022/03/15 02:31:09;;;;;;;86.72;36.75;;;;;;;-1.62;61.87;96735.25;5010255;28;20440;-82
2022/03/15 02:33:35;;;;;;;93.00;35.28;;;;;;;-0.88;62.32;96876.75;4992030;28;20034;-82
2022/03/15 02:36:01;;;;;;;85.55;36.88;;;;;;;-1.13;62.99;96865.47;5002242;28;20559;-81
2022/03/15 02:38:26;;;;;;;85.25;36.88;;;;;;;-1.17;63.78;96898.00;4991952;28;20018;-82
2022/03/15 02:40:52;;;;;;;89.20;37.50;;;;;;;-1.70;63.13;96779.44;4991835;28;20044;-82
2022/03/15 02:43:17;;;;;;;88.82;37.45;;;;;;;-1.66;63.09;96787.72;4988178;28;20050;-82
2022/03/15 02:45:43;;;;;;;80.70;35.90;;;;;;;-0.82;63.31;96905.56;4972036;28;20030;-82
2022/03/15 02:48:08;;;;;;;81.97;36.28;;;;;;;-0.95;62.77;96899.19;4988213;28;20064;-82
2022/03/15 02:50:34;;;;;;;101.07;38.65;;;;;;;-0.99;62.26;96867.44;4990146;28;20034;-82
2022/03/15 02:52:59;;;;;;;98.82;37.50;;;;;;;-0.65;62.04;96918.63;4988397;28;20030;-82
2022/03/15 02:55:26;;;;;;;98.32;39.28;;;;;;;-0.60;61.59;96906.72;4988492;28;20433;-82
2022/03/15 02:57:51;;;;;;;93.63;39.35;;;;;;;-1.04;62.36;96868.91;4988395;28;20066;-82
2022/03/15 03:00:17;;;;;;;96.13;38.55;;;;;;;-2.29;62.14;96645.22;5004922;28;20086;-82
2022/03/15 03:02:43;;;;;;;88.85;35.40;;;;;;;-1.51;61.78;96762.72;4990250;28;20026;-82
2022/03/15 03:05:08;;;;;;;99.85;36.88;;;;;;;-0.60;61.76;96911.13;4988411;28;20037;-82
2022/03/15 03:07:35;;;;;;;101.15;38.50;;;;;;;-1.04;61.74;96832.44;4988170;28;20045;-82
2022/03/15 03:10:01;;;;;;;78.68;34.95;;;;;;;-1.23;61.38;96802.31;5003701;28;20108;-82
2022/03/15 03:12:27;;;;;;;85.30;37.13;;;;;;;-1.03;61.52;96837.50;4979926;28;20033;-81
2022/03/15 03:14:52;;;;;;;99.22;36.47;;;;;;;-1.25;61.55;96836.31;4968630;28;20483;-82
2022/03/15 03:17:18;;;;;;;92.53;40.17;;;;;;;-1.42;61.14;96784.38;4968319;28;20053;-82
2022/03/15 03:19:44;;;;;;;95.85;37.03;;;;;;;-1.30;60.84;96777.91;4987814;28;20066;-81
2022/03/15 03:22:11;;;;;;;85.88;37.10;;;;;;;-0.97;60.92;96833.41;4989330;28;20041;-83
2022/03/15 03:24:36;;;;;;;87.32;35.45;;;;;;;-0.91;60.79;96845.78;5021477;28;20482;-82
2022/03/15 03:27:03;;;;;;;89.60;35.30;;;;;;;-1.60;60.95;96727.25;4991362;28;20061;-82
2022/03/15 03:29:29;;;;;;;87.25;38.03;;;;;;;-0.66;61.13;96883.94;4971305;28;20069;-82
2022/03/15 03:31:55;;;;;;;79.65;33.47;;;;;;;-1.19;61.32;96816.63;4968042;28;20090;-83
2022/03/15 03:34:21;;;;;;;84.10;35.78;;;;;;;-0.69;61.43;96891.25;4974240;28;20030;-82
2022/03/15 03:36:47;;;;;;;80.30;35.20;;;;;;;-1.33;61.27;96779.03;4980434;28;20031;-82
2022/03/15 03:39:12;;;;;;;78.13;35.13;;;;;;;-1.30;61.17;96788.31;4985009;28;20038;-82
2022/03/15 03:41:37;;;;;;;79.57;33.47;;;;;;;-1.15;60.96;96815.34;4970288;28;20078;-82
2022/03/15 03:44:04;;;;;;;80.70;34.03;;;;;;;-1.50;61.39;96751.34;4988858;28;20417;-83
2022/03/15 03:46:31;;;;;;;83.32;34.50;;;;;;;-1.34;61.61;96800.84;4971227;28;20117;-82
2022/03/15 03:48:57;;;;;;;93.03;34.35;;;;;;;-1.00;61.33;96834.59;5000715;28;20083;-82
2022/03/15 03:51:23;;;;;;;89.55;34.75;;;;;;;-0.92;60.83;96858.03;4990130;28;20110;-83
2022/03/15 03:53:49;;;;;;;78.55;33.65;;;;;;;-0.76;60.81;96898.88;4979815;28;20473;-82
2022/03/15 03:56:15;;;;;;;75.93;29.98;;;;;;;-1.93;60.94;96762.78;4969587;28;20034;-83
2022/03/15 03:58:40;;;;;;;69.00;29.13;;;;;;;-1.70;61.47;96815.03;4951551;28;20034;-82
2022/03/15 04:01:06;;;;;;;74.22;30.88;;;;;;;-2.05;62.42;96818.63;4969341;28;20105;-82
2022/03/15 04:03:32;;;;;;;73.72;29.52;;;;;;;-1.24;61.78;96933.44;4952269;28;20532;-82
2022/03/15 04:05:58;;;;;;;74.18;30.45;;;;;;;-2.12;62.18;96834.03;4969939;28;20034;-82
2022/03/15 04:08:24;;;;;;;74.10;30.05;;;;;;;-1.33;62.61;96945.63;4972614;28;20023;-82
2022/03/15 04:10:50;;;;;;;70.60;30.25;;;;;;;-1.77;61.92;96853.88;4989038;28;20030;-82
2022/03/15 04:13:18;;;;;;;80.88;32.65;;;;;;;-1.78;62.24;96862.66;4988635;28;20025;-82
2022/03/15 04:15:48;;;;;;;87.57;33.40;;;;;;;-1.15;61.80;96937.72;4988715;28;20026;-82
2022/03/15 04:18:14;;;;;;;94.22;38.22;;;;;;;-1.36;62.50;96908.66;4987431;28;20049;-82
2022/03/15 04:20:41;;;;;;;134.40;45.65;;;;;;;-1.41;62.09;96914.34;4988311;28;20030;-81
2022/03/15 04:23:08;;;;;;;128.65;45.42;;;;;;;-1.10;62.01;96952.84;4989027;28;20496;-81
2022/03/15 04:25:34;;;;;;;146.70;52.45;;;;;;;-1.13;61.75;96953.97;4970883;28;20034;-81
2022/03/15 04:28:00;;;;;;;146.52;53.80;;;;;;;-2.01;61.47;96806.97;4987987;28;20038;-82
2022/03/15 04:30:30;;;;;;;155.52;53.20;;;;;;;-1.03;61.46;96949.47;4988441;28;20505;-82
2022/03/15 04:32:56;;;;;;;161.25;55.13;;;;;;;-1.12;60.99;96940.00;4967727;28;20060;-82
2022/03/15 04:35:22;;;;;;;141.15;50.78;;;;;;;-1.17;61.23;96926.66;4986329;28;20026;-82
2022/03/15 04:37:49;;;;;;;165.50;54.90;;;;;;;-1.70;61.24;96851.47;4972499;28;20030;-83
2022/03/15 04:40:16;;;;;;;151.48;54.97;;;;;;;-1.97;61.45;96808.25;4970194;28;20030;-82
2022/03/15 04:42:41;;;;;;;154.82;53.10;;;;;;;-1.83;61.34;96840.69;4954625;28;20067;-83
2022/03/15 04:45:07;;;;;;;160.27;52.97;;;;;;;-1.45;61.69;96910.41;4971219;28;20042;-83
2022/03/15 04:47:33;;;;;;;155.55;55.88;;;;;;;-1.22;61.71;96929.69;4988167;28;20030;-82
2022/03/15 04:49:58;;;;;;;148.38;53.28;;;;;;;-1.87;61.48;96834.16;4970195;28;20031;-83
2022/03/15 04:52:24;;;;;;;152.55;52.13;;;;;;;-2.23;61.88;96771.13;4989955;28;20030;-83
2022/03/15 04:54:49;;;;;;;137.05;48.25;;;;;;;-1.30;61.44;96900.25;4974346;28;20041;-83
2022/03/15 04:57:15;;;;;;;139.82;49.85;;;;;;;-1.49;61.37;96884.88;5000818;28;20038;-83
2022/03/15 04:59:40;;;;;;;114.93;45.58;;;;;;;-1.70;61.35;96830.66;4991675;28;20420;-82
2022/03/15 05:02:06;;;;;;;126.38;47.22;;;;;;;-2.59;62.10;96728.88;4972551;28;20158;-83
2022/03/15 05:04:32;;;;;;;119.70;43.83;;;;;;;-1.53;61.85;96873.97;4988270;28;20505;-82
2022/03/15 05:06:57;;;;;;;112.93;43.08;;;;;;;-1.72;61.45;96863.81;4990023;28;20036;-82
2022/03/15 05:09:23;;;;;;;111.95;42.60;;;;;;;-1.86;62.29;96841.81;4989118;28;20034;-83
2022/03/15 05:11:48;;;;;;;110.55;44.70;;;;;;;-2.08;62.47;96811.16;4990951;28;20034;-83
2022/03/15 05:14:14;;;;;;;116.00;44.05;;;;;;;-1.41;62.13;96927.38;4957997;28;20031;-82
2022/03/15 05:16:39;;;;;;;117.13;43.03;;;;;;;-1.17;62.07;96927.47;4992498;28;20444;-82
2022/03/15 05:19:05;;;;;;;115.47;42.35;;;;;;;-1.44;61.83;96873.00;4976817;28;20073;-83
2022/03/15 05:21:31;;;;;;;109.05;41.58;;;;;;;-1.87;62.08;96831.56;4986444;28;20033;-82
2022/03/15 05:23:56;;;;;;;113.82;43.95;;;;;;;-1.95;61.89;96806.31;4989431;28;20070;-83
2022/03/15 05:26:23;;;;;;;109.30;42.38;;;;;;;-1.58;61.45;96851.03;4971760;28;20271;-82
2022/03/15 05:28:50;;;;;;;115.38;44.38;;;;;;;-2.68;62.03;96712.44;4971534;28;20136;-82
2022/03/15 05:31:20;;;;;;;106.60;42.35;;;;;;;-1.08;61.95;96928.31;4989185;28;20050;-85
2022/03/15 05:33:46;;;;;;;110.32;43.40;;;;;;;-0.82;61.83;96960.25;4985060;28;20100;-82
2022/03/15 05:36:12;;;;;;;103.63;42.75;;;;;;;-1.14;62.00;96912.50;4982641;28;20356;-82
2022/03/15 05:38:38;;;;;;;109.90;44.55;;;;;;;-2.08;61.60;96733.16;4976081;28;20050;-83
2022/03/15 05:41:05;;;;;;;113.55;41.53;;;;;;;-1.02;61.40;96919.84;4974434;28;20031;-82
2022/03/15 05:43:31;;;;;;;105.45;43.08;;;;;;;-0.78;61.42;96958.16;4977754;28;20047;-83
2022/03/15 05:45:56;;;;;;;90.82;37.00;;;;;;;-0.74;61.43;96964.69;4980147;28;20033;-82
2022/03/15 05:48:22;;;;;;;95.78;37.45;;;;;;;-1.96;61.64;96776.91;4971873;28;20523;-82
2022/03/15 05:50:48;;;;;;;98.80;36.88;;;;;;;-1.75;61.94;96796.47;4965057;28;20483;-83
2022/03/15 05:53:13;;;;;;;93.00;39.13;;;;;;;-0.83;62.09;96963.03;4970952;28;20041;-83
2022/03/15 05:55:40;;;;;;;95.30;37.20;;;;;;;-1.14;61.67;96900.28;4979365;28;20509;-82
2022/03/15 05:58:07;;;;;;;102.32;40.58;;;;;;;-0.53;61.25;96965.03;4962473;28;20120;-83
2022/03/15 06:00:32;;;;;;;106.43;38.33;;;;;;;-1.77;62.07;96817.47;4980717;28;20030;-82
2022/03/15 06:02:59;;;;;;;91.45;41.45;;;;;;;-0.81;61.79;96948.88;4959220;28;20068;-82
2022/03/15 06:05:24;;;;;;;81.32;38.05;;;;;;;-1.00;62.07;96917.09;4976415;28;20548;-82
2022/03/15 06:07:52;;;;;;;84.82;37.67;;;;;;;-0.59;61.73;96967.47;4981417;28;20038;-82
2022/03/15 06:10:23;;;;;;;100.00;41.00;;;;;;;-0.54;61.62;96970.44;4977922;28;20080;-81
2022/03/15 06:12:49;;;;;;;87.03;37.97;;;;;;;-0.54;61.92;96973.84;4982897;28;20030;-82
2022/03/15 06:15:15;;;;;;;93.75;40.03;;;;;;;-0.83;61.76;96916.13;4957542;28;20280;-82
2022/03/15 06:17:49;;;;;;;106.55;41.95;;;;;;;-0.73;62.49;96976.72;4962333;28;20054;-83
2022/03/15 06:20:16;;;;;;;101.60;41.33;;;;;;;-1.11;61.96;96873.94;4975218;28;20058;-82
2022/03/15 06:22:42;;;;;;;112.38;45.08;;;;;;;-0.36;61.79;96978.91;4956267;28;20524;-82
2022/03/15 06:25:09;;;;;;;120.45;47.58;;;;;;;-1.28;62.12;96839.22;4974962;28;20068;-82
2022/03/15 06:27:35;;;;;;;116.63;42.50;;;;;;;-1.28;61.97;96825.41;4960351;28;20038;-82
2022/03/15 06:30:00;;;;;;;101.15;41.80;;;;;;;-0.75;61.66;96910.94;4962761;28;20033;-81
2022/03/15 06:32:26;;;;;;;91.97;39.10;;;;;;;-0.64;61.43;96902.00;4975036;28;20050;-82
2022/03/15 06:34:51;;;;;;;106.45;42.33;;;;;;;-0.27;61.91;96977.94;4957931;28;20391;-82
2022/03/15 06:37:17;;;;;;;96.47;41.05;;;;;;;-0.65;61.22;96901.19;4963159;28;20034;-81
2022/03/15 06:39:44;;;;;;;103.78;40.30;;;;;;;-0.46;60.93;96939.97;4978378;28;20049;-82
2022/03/15 06:42:11;;;;;;;95.72;41.42;;;;;;;-0.54;61.17;96897.47;4974516;28;20488;-82
2022/03/15 06:44:42;;;;;;;98.93;40.92;;;;;;;0.06;60.71;96985.78;4955948;28;20097;-81
2022/03/15 06:47:08;;;;;;;113.13;39.50;;;;;;;-0.22;60.49;96944.38;4977592;28;20034;-83
2022/03/15 06:49:34;;;;;;;96.97;39.55;;;;;;;-0.22;60.36;96922.69;4971689;28;20837;-82
2022/03/15 06:51:59;;;;;;;85.57;38.35;;;;;;;-0.24;60.01;96904.63;4965813;28;20057;-81
2022/03/15 06:54:26;;;;;;;93.95;40.80;;;;;;;-0.18;59.51;96895.31;4974764;28;20440;-82
2022/03/15 06:56:53;;;;;;;92.88;39.10;;;;;;;-0.46;59.48;96858.38;4961157;28;20509;-82
2022/03/15 06:59:19;;;;;;;110.55;40.45;;;;;;;-0.29;59.22;96877.41;4975783;28;20455;-82
2022/03/15 07:01:45;;;;;;;103.20;39.70;;;;;;;-0.13;59.79;96929.53;4974106;28;20100;-83
2022/03/15 07:04:11;;;;;;;93.72;39.08;;;;;;;-0.57;59.31;96853.47;4959003;28;20509;-82
2022/03/15 07:06:36;;;;;;;98.50;40.47;;;;;;;-0.16;58.57;96882.94;4952486;28;20032;-83
2022/03/15 07:09:02;;;;;;;103.10;39.22;;;;;;;0.07;58.42;96906.56;4968931;28;20089;-82
2022/03/15 07:11:27;;;;;;;117.45;39.78;;;;;;;-0.09;58.69;96866.47;4954426;28;20027;-82
2022/03/15 07:13:53;;;;;;;92.85;40.08;;;;;;;0.70;58.42;96993.50;4953603;28;20046;-82
2022/03/15 07:16:19;;;;;;;96.70;40.55;;;;;;;0.34;58.82;96964.38;4963044;28;20034;-82
2022/03/15 07:18:45;;;;;;;118.18;43.25;;;;;;;0.32;58.95;96937.63;4960624;28;20273;-81
2022/03/15 07:21:11;;;;;;;104.38;38.58;;;;;;;0.23;58.59;96930.00;4974780;28;20034;-83
2022/03/15 07:23:37;;;;;;;95.30;37.47;;;;;;;0.10;58.83;96927.88;4953044;28;20344;-82
2022/03/15 07:26:03;;;;;;;88.53;35.80;;;;;;;0.54;58.76;96990.09;4973130;28;20022;-82
2022/03/15 07:28:28;;;;;;;75.88;32.65;;;;;;;0.28;58.47;96925.09;4962166;28;20033;-82
2022/03/15 07:30:54;;;;;;;87.25;34.42;;;;;;;0.72;58.52;96990.72;4968842;28;20368;-81
2022/03/15 07:33:19;;;;;;;77.22;35.13;;;;;;;-0.40;57.93;96766.47;4973735;28;20496;-82
2022/03/15 07:35:45;;;;;;;84.82;32.45;;;;;;;0.21;57.69;96877.97;4976154;28;20460;-81
2022/03/15 07:38:16;;;;;;;87.93;33.00;;;;;;;1.03;57.62;96988.97;4955165;28;20081;-81
2022/03/15 07:40:43;;;;;;;85.82;30.45;;;;;;;0.24;57.28;96889.84;4945513;28;20309;-81
2022/03/15 07:43:09;;;;;;;80.47;33.83;;;;;;;0.17;57.07;96871.44;4956778;28;20045;-81
2022/03/15 07:45:34;;;;;;;71.63;32.35;;;;;;;0.56;56.93;96902.81;4974468;28;20051;-82
2022/03/15 07:48:00;;;;;;;100.88;35.83;;;;;;;-0.51;56.78;96723.31;4972890;28;20030;-81
2022/03/15 07:50:25;;;;;;;69.72;31.73;;;;;;;0.25;57.55;96866.22;4975658;28;20085;-81
2022/03/15 07:52:52;;;;;;;83.60;34.17;;;;;;;0.76;57.31;96935.34;4960575;28;20258;-80
2022/03/15 07:55:19;;;;;;;87.28;33.78;;;;;;;0.82;57.40;96927.84;4972267;28;20092;-80
2022/03/15 07:57:44;;;;;;;65.50;31.70;;;;;;;0.65;56.70;96875.69;4955354;28;20042;-80
2022/03/15 08:00:10;;;;;;;103.72;32.55;;;;;;;0.71;57.18;96871.56;4978204;28;20031;-80
2022/03/15 08:02:35;;;;;;;80.57;32.53;;;;;;;1.51;56.79;96974.03;4968901;28;20125;-81
2022/03/15 08:05:01;;;;;;;81.93;33.53;;;;;;;1.62;56.70;96978.03;4954199;28;20072;-81
2022/03/15 08:07:26;;;;;;;79.65;31.30;;;;;;;0.94;56.51;96863.78;4973702;28;20037;-82
2022/03/15 08:09:55;;;;;;;68.60;29.75;;;;;;;0.66;55.36;96835.53;4958966;28;20041;-82
2022/03/15 08:12:20;;;;;;;61.78;29.08;;;;;;;1.32;55.62;96941.28;4976717;28;20034;-81
2022/03/15 08:14:52;;;;;;;71.13;30.90;;;;;;;1.58;55.05;96955.84;4971560;28;20039;-81
2022/03/15 08:17:38;;;;;;;;;;;;;;;1.83;54.59;96962.53;4979369;28;20058;-82
2022/03/15 08:20:04;;;;;;;71.82;28.80;;;;;;;1.17;54.48;96851.56;4975801;28;20256;-82
2022/03/15 08:22:31;;;;;;;69.15;28.30;;;;;;;1.87;53.08;96955.97;4979635;28;20412;-82
2022/03/15 08:24:58;;;;;;;53.85;27.65;;;;;;;1.74;53.91;96933.00;4969845;28;20399;-81
2022/03/15 08:27:24;;;;;;;66.32;29.73;;;;;;;1.92;53.65;96932.69;4969591;28;20391;-82
2022/03/15 08:29:49;;;;;;;89.05;31.13;;;;;;;0.58;53.69;96714.66;4967570;28;20468;-82
2022/03/15 08:32:15;;;;;;;73.70;30.67;;;;;;;1.26;53.34;96781.75;4982276;28;20038;-82
2022/03/15 08:34:42;;;;;;;90.15;34.95;;;;;;;2.16;54.79;96947.38;4976079;28;20081;-81
2022/03/15 08:37:08;;;;;;;74.70;33.22;;;;;;;1.84;54.14;96867.34;4963860;28;20484;-82
2022/03/15 08:39:34;;;;;;;84.22;32.25;;;;;;;2.51;53.44;96954.56;4978885;28;20205;-82
2022/03/15 08:42:00;;;;;;;69.00;30.80;;;;;;;2.68;53.08;96945.50;4962199;28;20106;-82
2022/03/15 08:44:26;;;;;;;79.47;33.63;;;;;;;2.58;52.88;96910.94;4963647;28;20038;-82
2022/03/15 08:46:52;;;;;;;75.47;33.92;;;;;;;1.76;53.10;96768.03;4988162;28;20061;-82
2022/03/15 08:49:23;;;;;;;78.20;34.85;;;;;;;2.81;52.81;96921.31;4963844;28;20066;-82
2022/03/15 08:51:49;;;;;;;;;;;;;;;2.87;51.91;96923.19;4978466;28;20497;-82
2022/03/15 08:54:15;;;;;;;94.28;34.22;;;;;;;2.81;51.64;96910.84;4979423;28;19926;-82
2022/03/15 08:56:41;;;;;;;78.00;32.90;;;;;;;2.90;51.23;96901.84;4982704;28;20232;-82
2022/03/15 08:59:15;;;;;;;69.55;33.00;;;;;;;2.97;51.23;96892.28;4967073;28;20097;-82
2022/03/15 09:01:41;;;;;;;71.53;33.50;;;;;;;3.19;51.38;96923.78;4978700;28;20035;-82
2022/03/15 09:04:06;;;;;;;79.72;32.92;;;;;;;2.77;50.66;96838.81;4974390;28;20042;-81
2022/03/15 09:06:32;;;;;;;68.97;32.28;;;;;;;3.05;49.63;96852.84;4975509;28;20039;-81
2022/03/15 09:09:00;;;;;;;74.10;31.90;;;;;;;2.97;49.40;96839.06;4962996;28;20030;-82
2022/03/15 09:11:29;;;;;;;71.43;30.75;;;;;;;3.15;49.36;96851.72;4971060;28;20571;-81
2022/03/15 09:13:55;;;;;;;86.47;34.05;;;;;;;3.28;49.89;96850.03;4979649;28;20156;-81
2022/03/15 09:16:24;;;;;;;81.75;32.88;;;;;;;3.28;49.39;96855.28;4956792;28;20045;-81
2022/03/15 09:18:50;;;;;;;85.95;31.45;;;;;;;0.87;49.30;96476.28;4958832;28;20479;-81
2022/03/15 09:21:15;;;;;;;72.85;32.88;;;;;;;2.51;49.25;96687.44;4961087;28;20798;-81
2022/03/15 09:23:45;;;;;;;64.28;32.03;;;;;;;3.05;49.14;96783.91;4963147;28;20041;-81
2022/03/15 09:26:11;;;;;;;89.47;34.67;;;;;;;2.93;49.56;96770.47;4977145;28;20121;-81
2022/03/15 09:28:41;;;;;;;72.80;30.42;;;;;;;3.90;48.84;96891.34;4984691;28;20038;-81
2022/03/15 09:31:07;;;;;;;67.47;31.60;;;;;;;3.63;48.41;96839.69;4979250;28;20058;-82
2022/03/15 09:33:34;;;;;;;70.47;31.42;;;;;;;3.64;48.28;96820.31;4979458;28;20034;-82
2022/03/15 09:36:00;;;;;;;69.63;31.60;;;;;;;3.40;47.82;96777.75;4970835;28;20507;-83
2022/03/15 09:38:26;;;;;;;65.93;30.67;;;;;;;2.95;47.84;96697.72;4974176;28;20038;-83
2022/03/15 09:40:53;;;;;;;64.75;31.10;;;;;;;3.96;47.47;96819.75;4957914;28;20733;-80
2022/03/15 09:43:22;;;;;;;68.85;30.80;;;;;;;3.93;46.99;96808.81;4955348;28;20046;-82
2022/03/15 09:45:50;;;;;;;70.82;30.13;;;;;;;4.31;46.48;96865.19;4944510;28;20681;-81
2022/03/15 09:48:20;;;;;;;64.18;29.58;;;;;;;3.78;47.03;96756.44;4977654;28;20105;-80
2022/03/15 09:50:48;;;;;;;65.90;29.83;;;;;;;3.91;45.47;96759.13;4978181;28;20037;-81
2022/03/15 09:53:16;;;;;;;76.80;31.88;;;;;;;4.56;45.57;96858.47;4977252;28;20138;-81
2022/03/15 09:55:45;;;;;;;65.80;25.98;;;;;;;4.21;44.01;96796.44;4965951;28;20046;-81
2022/03/15 09:58:12;;;;;;;65.10;27.63;;;;;;;4.25;44.52;96782.75;4957264;28;20338;-83
2022/03/15 10:00:38;;;;;;;61.10;25.77;;;;;;;4.28;43.69;96786.78;4955263;28;20708;-82
2022/03/15 10:03:04;;;;;;;58.88;25.70;;;;;;;4.42;43.29;96788.50;4975180;28;20030;-82
2022/03/15 10:05:29;;;;;;;57.53;25.80;;;;;;;4.54;42.63;96775.59;4970619;28;20412;-82
2022/03/15 10:07:55;;;;;;;55.72;25.98;;;;;;;5.19;42.20;96834.66;4963188;28;20042;-81
2022/03/15 10:10:23;;;;;;;62.97;26.40;;;;;;;4.81;42.33;96752.81;4959099;28;20038;-81
2022/03/15 10:12:48;;;;;;;59.70;26.60;;;;;;;5.53;41.91;96794.19;4953127;28;20125;-81
2022/03/15 10:15:21;;;;;;;58.75;24.67;;;;;;;6.68;40.28;96827.88;4959469;28;20180;-82
2022/03/15 10:17:55;;;;;;;53.75;23.13;;;;;;;6.68;40.28;96827.88;4953785;28;20439;-82
2022/03/15 10:20:29;;;;;;;62.78;25.83;;;;;;;-143.51;100.00;62207.84;4971689;28;20049;-83
2022/03/15 10:22:59;;;;;;;58.28;23.98;;;;;;;7.74;37.88;96786.63;4980547;28;20035;-79
2022/03/15 10:25:27;;;;;;;43.77;22.10;;;;;;;11.44;29.61;96796.56;4973474;28;20038;-82
2022/03/15 10:27:58;;;;;;;49.92;20.83;;;;;;;12.39;28.00;96814.31;4977235;28;20264;-88
2022/03/15 10:30:26;;;;;;;41.80;21.10;;;;;;;10.99;26.72;96559.47;4984032;28;20074;-89
2022/03/15 10:32:52;;;;;;;47.05;22.73;;;;;;;13.71;26.15;96799.88;4964637;28;20134;-88
2022/03/15 10:35:26;;;;;;;51.60;23.13;;;;;;;12.29;26.45;96503.75;4972517;28;20496;-88
2022/03/15 10:37:53;;;;;;;45.13;21.88;;;;;;;14.56;25.59;96758.88;4970206;28;20486;-88
2022/03/15 10:40:34;;;;;;;44.38;19.80;;;;;;;14.53;24.30;96703.31;4970371;28;20038;-87
2022/03/15 10:43:09;;;;;;;51.05;20.23;;;;;;;14.47;23.64;96723.06;4967082;28;20570;-83
2022/03/15 10:45:43;;;;;;;36.20;17.80;;;;;;;14.95;22.77;96741.38;4969535;28;20034;-83
2022/03/15 10:48:15;;;;;;;40.22;15.90;;;;;;;14.60;22.42;96675.31;4973009;28;20137;-82
2022/03/15 10:50:54;;;;;;;;;;;;;;;14.85;23.41;96776.09;4978932;28;20026;-83
2022/03/15 10:53:22;;;;;;;39.17;18.63;;;;;;;14.58;22.70;96685.44;4966032;28;20554;-83
2022/03/15 10:55:47;;;;;;;22.20;13.63;;;;;;;14.36;22.07;96740.03;4964484;28;20133;-82
2022/03/15 10:58:21;;;;;;;30.13;14.18;;;;;;;14.65;21.50;96669.97;4966869;28;20137;-82
2022/03/15 11:00:50;;;;;;;36.05;13.18;;;;;;;14.15;21.79;96673.22;4977131;28;20629;-82
2022/03/15 11:03:23;;;;;;;24.40;12.25;;;;;;;13.61;22.50;96643.31;4963033;28;20129;-84
2022/03/15 11:05:50;;;;;;;16.88;10.27;;;;;;;14.12;21.72;96737.78;4954954;28;20064;-83
2022/03/15 11:08:18;;;;;;;30.50;11.10;;;;;;;13.86;21.55;96642.69;4956321;28;20736;-84
2022/03/15 11:10:54;;;;;;;25.42;11.43;;;;;;;13.70;22.47;96630.31;4955490;28;20034;-84
2022/03/15 11:13:28;;;;;;;24.13;13.77;;;;;;;12.17;22.25;96390.63;4972204;28;20732;-83
2022/03/15 11:15:56;;;;;;;21.42;9.70;;;;;;;13.46;21.78;96609.38;4965543;28;20081;-83
2022/03/15 11:18:29;;;;;;;22.42;9.30;;;;;;;12.97;22.05;96591.94;4951460;28;20034;-82